sensor_id;sensor_type;location;lat;lon;timestamp;temperature;humidity
2363;DHT22;64265;51.664;7.626;2023-12-20T00:01:09;21.70;73.40
2363;DHT22;64265;51.664;7.626;2023-12-20T00:03:36;21.70;73.30
2363;DHT22;64265;51.664;7.626;2023-12-20T00:06:03;21.60;73.30
2363;DHT22;64265;51.664;7.626;2023-12-20T00:08:30;21.60;73.30
2363;DHT22;64265;51.664;7.626;2023-12-20T00:10:58;21.60;73.30
2363;DHT22;64265;51.664;7.626;2023-12-20T00:13:24;21.60;73.40
2363;DHT22;64265;51.664;7.626;2023-12-20T00:15:51;21.60;73.40
2363;DHT22;64265;51.664;7.626;2023-12-20T00:18:18;21.60;73.30
2363;DHT22;64265;51.664;7.626;2023-12-20T00:20:45;21.60;73.40
2363;DHT22;64265;51.664;7.626;2023-12-20T00:23:12;21.60;73.40
2363;DHT22;64265;51.664;7.626;2023-12-20T00:25:38;21.50;73.40
2363;DHT22;64265;51.664;7.626;2023-12-20T00:28:06;21.50;73.30
2363;DHT22;64265;51.664;7.626;2023-12-20T00:30:33;21.50;73.40
2363;DHT22;64265;51.664;7.626;2023-12-20T00:32:59;21.50;73.40
2363;DHT22;64265;51.664;7.626;2023-12-20T00:35:26;21.50;73.40
2363;DHT22;64265;51.664;7.626;2023-12-20T00:37:53;21.50;73.40
2363;DHT22;64265;51.664;7.626;2023-12-20T00:40:20;21.50;73.50
2363;DHT22;64265;51.664;7.626;2023-12-20T00:42:47;21.40;73.30
2363;DHT22;64265;51.664;7.626;2023-12-20T00:45:15;21.50;73.50
2363;DHT22;64265;51.664;7.626;2023-12-20T00:47:42;21.40;73.40
2363;DHT22;64265;51.664;7.626;2023-12-20T00:50:09;21.40;73.40
2363;DHT22;64265;51.664;7.626;2023-12-20T00:52:36;21.40;73.40
2363;DHT22;64265;51.664;7.626;2023-12-20T00:55:03;21.40;73.40
2363;DHT22;64265;51.664;7.626;2023-12-20T00:57:30;21.40;73.30
2363;DHT22;64265;51.664;7.626;2023-12-20T00:59:57;21.40;73.30
2363;DHT22;64265;51.664;7.626;2023-12-20T01:02:25;21.40;73.40
2363;DHT22;64265;51.664;7.626;2023-12-20T01:04:51;21.40;73.40
2363;DHT22;64265;51.664;7.626;2023-12-20T01:07:18;21.30;73.30
2363;DHT22;64265;51.664;7.626;2023-12-20T01:09:45;21.30;73.20
2363;DHT22;64265;51.664;7.626;2023-12-20T01:12:11;21.40;73.40
2363;DHT22;64265;51.664;7.626;2023-12-20T01:14:38;21.30;73.40
2363;DHT22;64265;51.664;7.626;2023-12-20T01:17:05;21.40;73.50
2363;DHT22;64265;51.664;7.626;2023-12-20T01:19:33;21.30;73.40
2363;DHT22;64265;51.664;7.626;2023-12-20T01:22:00;21.30;73.40
2363;DHT22;64265;51.664;7.626;2023-12-20T01:24:26;21.30;73.50
2363;DHT22;64265;51.664;7.626;2023-12-20T01:26:53;21.30;73.40
2363;DHT22;64265;51.664;7.626;2023-12-20T01:29:20;21.30;73.40
2363;DHT22;64265;51.664;7.626;2023-12-20T01:31:46;21.30;73.40
2363;DHT22;64265;51.664;7.626;2023-12-20T01:34:13;21.30;73.60
2363;DHT22;64265;51.664;7.626;2023-12-20T01:36:41;21.20;73.40
2363;DHT22;64265;51.664;7.626;2023-12-20T01:39:08;21.30;73.60
2363;DHT22;64265;51.664;7.626;2023-12-20T01:41:34;21.20;73.40
2363;DHT22;64265;51.664;7.626;2023-12-20T01:44:01;21.20;73.40
2363;DHT22;64265;51.664;7.626;2023-12-20T01:46:27;21.20;73.40
2363;DHT22;64265;51.664;7.626;2023-12-20T01:48:54;21.30;73.50
2363;DHT22;64265;51.664;7.626;2023-12-20T01:51:21;21.20;73.40
2363;DHT22;64265;51.664;7.626;2023-12-20T01:53:50;21.20;73.50
2363;DHT22;64265;51.664;7.626;2023-12-20T01:56:17;21.20;74.20
2363;DHT22;64265;51.664;7.626;2023-12-20T01:58:44;21.20;73.60
2363;DHT22;64265;51.664;7.626;2023-12-20T02:01:12;21.20;73.40
2363;DHT22;64265;51.664;7.626;2023-12-20T02:03:39;21.20;73.60
2363;DHT22;64265;51.664;7.626;2023-12-20T02:06:07;21.10;73.60
2363;DHT22;64265;51.664;7.626;2023-12-20T02:08:34;21.20;73.50
2363;DHT22;64265;51.664;7.626;2023-12-20T02:11:02;21.10;73.60
2363;DHT22;64265;51.664;7.626;2023-12-20T02:13:29;21.10;73.60
2363;DHT22;64265;51.664;7.626;2023-12-20T02:15:56;21.10;73.40
2363;DHT22;64265;51.664;7.626;2023-12-20T02:18:23;21.10;73.50
2363;DHT22;64265;51.664;7.626;2023-12-20T02:20:49;21.10;73.40
2363;DHT22;64265;51.664;7.626;2023-12-20T02:23:17;21.10;73.50
2363;DHT22;64265;51.664;7.626;2023-12-20T02:25:44;21.10;73.60
2363;DHT22;64265;51.664;7.626;2023-12-20T02:28:11;21.10;73.60
2363;DHT22;64265;51.664;7.626;2023-12-20T02:30:38;21.00;74.00
2363;DHT22;64265;51.664;7.626;2023-12-20T02:33:07;21.10;73.60
2363;DHT22;64265;51.664;7.626;2023-12-20T02:35:34;21.10;73.70
2363;DHT22;64265;51.664;7.626;2023-12-20T02:38:01;21.00;73.50
2363;DHT22;64265;51.664;7.626;2023-12-20T02:40:29;21.00;73.50
2363;DHT22;64265;51.664;7.626;2023-12-20T02:43:05;21.00;73.50
2363;DHT22;64265;51.664;7.626;2023-12-20T02:45:32;21.00;73.50
2363;DHT22;64265;51.664;7.626;2023-12-20T02:47:59;21.00;73.50
2363;DHT22;64265;51.664;7.626;2023-12-20T02:50:25;21.00;73.50
2363;DHT22;64265;51.664;7.626;2023-12-20T02:52:52;21.00;73.50
2363;DHT22;64265;51.664;7.626;2023-12-20T02:55:19;21.00;73.60
2363;DHT22;64265;51.664;7.626;2023-12-20T02:57:47;21.00;73.60
2363;DHT22;64265;51.664;7.626;2023-12-20T03:00:14;21.00;73.60
2363;DHT22;64265;51.664;7.626;2023-12-20T03:02:41;20.90;73.50
2363;DHT22;64265;51.664;7.626;2023-12-20T03:05:08;21.00;73.60
2363;DHT22;64265;51.664;7.626;2023-12-20T03:07:36;20.90;73.50
2363;DHT22;64265;51.664;7.626;2023-12-20T03:10:04;21.00;73.60
2363;DHT22;64265;51.664;7.626;2023-12-20T03:12:31;20.90;73.40
2363;DHT22;64265;51.664;7.626;2023-12-20T03:14:59;21.00;73.60
2363;DHT22;64265;51.664;7.626;2023-12-20T03:17:26;20.90;73.60
2363;DHT22;64265;51.664;7.626;2023-12-20T03:19:53;20.90;73.50
2363;DHT22;64265;51.664;7.626;2023-12-20T03:22:19;20.90;73.70
2363;DHT22;64265;51.664;7.626;2023-12-20T03:24:46;20.90;73.50
2363;DHT22;64265;51.664;7.626;2023-12-20T03:27:13;20.90;73.50
2363;DHT22;64265;51.664;7.626;2023-12-20T03:29:40;20.90;73.50
2363;DHT22;64265;51.664;7.626;2023-12-20T03:32:08;20.90;73.50
2363;DHT22;64265;51.664;7.626;2023-12-20T03:34:35;20.90;73.70
2363;DHT22;64265;51.664;7.626;2023-12-20T03:37:01;20.90;73.50
2363;DHT22;64265;51.664;7.626;2023-12-20T03:39:28;20.90;73.60
2363;DHT22;64265;51.664;7.626;2023-12-20T03:41:55;20.90;73.50
2363;DHT22;64265;51.664;7.626;2023-12-20T03:44:22;20.80;73.60
2363;DHT22;64265;51.664;7.626;2023-12-20T03:46:48;20.90;73.70
2363;DHT22;64265;51.664;7.626;2023-12-20T03:49:16;20.80;73.50
2363;DHT22;64265;51.664;7.626;2023-12-20T03:51:43;20.80;73.40
2363;DHT22;64265;51.664;7.626;2023-12-20T03:54:10;20.90;73.60
2363;DHT22;64265;51.664;7.626;2023-12-20T03:56:37;20.90;73.70
2363;DHT22;64265;51.664;7.626;2023-12-20T03:59:03;20.90;73.50
2363;DHT22;64265;51.664;7.626;2023-12-20T04:01:30;20.90;73.70
2363;DHT22;64265;51.664;7.626;2023-12-20T04:03:57;20.80;73.50
2363;DHT22;64265;51.664;7.626;2023-12-20T04:06:25;20.80;73.50
2363;DHT22;64265;51.664;7.626;2023-12-20T04:08:52;20.80;73.70
2363;DHT22;64265;51.664;7.626;2023-12-20T04:11:18;20.80;73.60
2363;DHT22;64265;51.664;7.626;2023-12-20T04:13:45;20.80;73.60
2363;DHT22;64265;51.664;7.626;2023-12-20T04:16:12;20.80;73.60
2363;DHT22;64265;51.664;7.626;2023-12-20T04:18:38;20.90;73.70
2363;DHT22;64265;51.664;7.626;2023-12-20T04:21:05;20.80;73.60
2363;DHT22;64265;51.664;7.626;2023-12-20T04:23:34;20.80;73.70
2363;DHT22;64265;51.664;7.626;2023-12-20T04:26:00;20.80;73.50
2363;DHT22;64265;51.664;7.626;2023-12-20T04:28:27;20.80;74.40
2363;DHT22;64265;51.664;7.626;2023-12-20T04:30:55;20.80;73.60
2363;DHT22;64265;51.664;7.626;2023-12-20T04:33:22;20.80;73.50
2363;DHT22;64265;51.664;7.626;2023-12-20T04:35:49;20.80;73.70
2363;DHT22;64265;51.664;7.626;2023-12-20T04:38:16;20.80;73.50
2363;DHT22;64265;51.664;7.626;2023-12-20T04:40:44;20.80;73.70
2363;DHT22;64265;51.664;7.626;2023-12-20T04:43:11;20.80;73.80
2363;DHT22;64265;51.664;7.626;2023-12-20T04:45:38;20.70;73.50
2363;DHT22;64265;51.664;7.626;2023-12-20T04:48:05;20.70;73.60
2363;DHT22;64265;51.664;7.626;2023-12-20T04:50:32;20.70;73.50
2363;DHT22;64265;51.664;7.626;2023-12-20T04:53:00;20.70;73.50
2363;DHT22;64265;51.664;7.626;2023-12-20T04:55:26;20.70;73.50
2363;DHT22;64265;51.664;7.626;2023-12-20T04:57:54;20.70;73.50
2363;DHT22;64265;51.664;7.626;2023-12-20T05:00:22;20.70;73.70
2363;DHT22;64265;51.664;7.626;2023-12-20T05:02:49;20.70;73.50
2363;DHT22;64265;51.664;7.626;2023-12-20T05:05:15;20.70;73.50
2363;DHT22;64265;51.664;7.626;2023-12-20T05:07:43;20.70;73.50
2363;DHT22;64265;51.664;7.626;2023-12-20T05:10:10;20.70;73.50
2363;DHT22;64265;51.664;7.626;2023-12-20T05:12:37;20.70;73.50
2363;DHT22;64265;51.664;7.626;2023-12-20T05:15:06;20.70;73.60
2363;DHT22;64265;51.664;7.626;2023-12-20T05:17:33;20.70;73.60
2363;DHT22;64265;51.664;7.626;2023-12-20T05:20:00;20.70;73.60
2363;DHT22;64265;51.664;7.626;2023-12-20T05:22:27;20.60;73.50
2363;DHT22;64265;51.664;7.626;2023-12-20T05:24:53;20.60;73.50
2363;DHT22;64265;51.664;7.626;2023-12-20T05:27:20;20.60;73.50
2363;DHT22;64265;51.664;7.626;2023-12-20T05:29:47;20.70;73.60
2363;DHT22;64265;51.664;7.626;2023-12-20T05:32:16;20.60;73.50
2363;DHT22;64265;51.664;7.626;2023-12-20T05:34:43;20.60;73.40
2363;DHT22;64265;51.664;7.626;2023-12-20T05:37:09;20.70;73.60
2363;DHT22;64265;51.664;7.626;2023-12-20T05:39:36;20.70;73.60
2363;DHT22;64265;51.664;7.626;2023-12-20T05:42:04;20.70;73.60
2363;DHT22;64265;51.664;7.626;2023-12-20T05:44:30;20.70;73.70
2363;DHT22;64265;51.664;7.626;2023-12-20T05:46:57;20.60;73.40
2363;DHT22;64265;51.664;7.626;2023-12-20T05:49:25;20.60;73.50
2363;DHT22;64265;51.664;7.626;2023-12-20T05:51:52;20.60;73.50
2363;DHT22;64265;51.664;7.626;2023-12-20T05:54:19;20.70;73.70
2363;DHT22;64265;51.664;7.626;2023-12-20T05:56:47;20.60;73.50
2363;DHT22;64265;51.664;7.626;2023-12-20T05:59:13;20.70;73.70
2363;DHT22;64265;51.664;7.626;2023-12-20T06:01:40;20.60;73.40
2363;DHT22;64265;51.664;7.626;2023-12-20T06:04:07;20.60;73.60
2363;DHT22;64265;51.664;7.626;2023-12-20T06:06:40;20.60;73.50
2363;DHT22;64265;51.664;7.626;2023-12-20T06:09:07;20.60;73.50
2363;DHT22;64265;51.664;7.626;2023-12-20T06:11:34;20.60;73.60
2363;DHT22;64265;51.664;7.626;2023-12-20T06:14:00;20.60;73.60
2363;DHT22;64265;51.664;7.626;2023-12-20T06:16:27;20.60;73.50
2363;DHT22;64265;51.664;7.626;2023-12-20T06:18:54;20.60;73.50
2363;DHT22;64265;51.664;7.626;2023-12-20T06:21:21;20.60;73.60
2363;DHT22;64265;51.664;7.626;2023-12-20T06:23:49;20.60;73.50
2363;DHT22;64265;51.664;7.626;2023-12-20T06:26:15;20.60;73.50
2363;DHT22;64265;51.664;7.626;2023-12-20T06:28:42;20.60;73.60
2363;DHT22;64265;51.664;7.626;2023-12-20T06:31:09;20.60;73.60
2363;DHT22;64265;51.664;7.626;2023-12-20T06:33:36;20.60;73.50
2363;DHT22;64265;51.664;7.626;2023-12-20T06:36:03;20.50;73.60
2363;DHT22;64265;51.664;7.626;2023-12-20T06:38:30;20.60;73.60
2363;DHT22;64265;51.664;7.626;2023-12-20T06:40:58;20.60;73.70
2363;DHT22;64265;51.664;7.626;2023-12-20T06:43:25;20.50;73.40
2363;DHT22;64265;51.664;7.626;2023-12-20T06:45:51;20.60;73.60
2363;DHT22;64265;51.664;7.626;2023-12-20T06:48:18;20.60;73.60
2363;DHT22;64265;51.664;7.626;2023-12-20T06:50:46;20.60;73.60
2363;DHT22;64265;51.664;7.626;2023-12-20T06:53:12;20.60;73.60
2363;DHT22;64265;51.664;7.626;2023-12-20T06:55:39;20.60;73.70
2363;DHT22;64265;51.664;7.626;2023-12-20T06:58:07;20.60;73.70
2363;DHT22;64265;51.664;7.626;2023-12-20T07:00:34;20.50;73.60
2363;DHT22;64265;51.664;7.626;2023-12-20T07:03:01;20.60;73.90
2363;DHT22;64265;51.664;7.626;2023-12-20T07:05:27;20.50;73.80
2363;DHT22;64265;51.664;7.626;2023-12-20T07:07:54;20.50;73.90
2363;DHT22;64265;51.664;7.626;2023-12-20T07:10:20;20.50;74.00
2363;DHT22;64265;51.664;7.626;2023-12-20T07:12:47;20.50;74.30
2363;DHT22;64265;51.664;7.626;2023-12-20T07:15:16;20.40;73.70
2363;DHT22;64265;51.664;7.626;2023-12-20T07:17:43;20.50;74.00
2363;DHT22;64265;51.664;7.626;2023-12-20T07:20:11;20.50;73.90
2363;DHT22;64265;51.664;7.626;2023-12-20T07:22:38;20.50;74.00
2363;DHT22;64265;51.664;7.626;2023-12-20T07:25:06;20.40;73.90
2363;DHT22;64265;51.664;7.626;2023-12-20T07:27:32;20.40;74.00
2363;DHT22;64265;51.664;7.626;2023-12-20T07:29:59;20.40;74.60
2363;DHT22;64265;51.664;7.626;2023-12-20T07:32:27;20.40;74.00
2363;DHT22;64265;51.664;7.626;2023-12-20T07:34:54;20.40;74.00
2363;DHT22;64265;51.664;7.626;2023-12-20T07:37:21;20.40;73.90
2363;DHT22;64265;51.664;7.626;2023-12-20T07:39:47;20.40;73.90
2363;DHT22;64265;51.664;7.626;2023-12-20T07:42:14;20.40;74.00
2363;DHT22;64265;51.664;7.626;2023-12-20T07:44:41;20.40;74.20
2363;DHT22;64265;51.664;7.626;2023-12-20T07:47:08;20.40;74.30
2363;DHT22;64265;51.664;7.626;2023-12-20T07:49:36;20.40;74.20
2363;DHT22;64265;51.664;7.626;2023-12-20T07:52:03;20.50;74.30
2363;DHT22;64265;51.664;7.626;2023-12-20T07:54:30;20.40;74.30
2363;DHT22;64265;51.664;7.626;2023-12-20T07:56:57;20.60;74.60
2363;DHT22;64265;51.664;7.626;2023-12-20T07:59:24;20.50;74.70
2363;DHT22;64265;51.664;7.626;2023-12-20T08:01:50;20.50;74.80
2363;DHT22;64265;51.664;7.626;2023-12-20T08:04:17;20.50;74.90
2363;DHT22;64265;51.664;7.626;2023-12-20T08:06:45;20.60;75.30
2363;DHT22;64265;51.664;7.626;2023-12-20T08:09:12;20.60;75.40
2363;DHT22;64265;51.664;7.626;2023-12-20T08:11:38;20.60;75.50
2363;DHT22;64265;51.664;7.626;2023-12-20T08:14:05;20.60;75.50
2363;DHT22;64265;51.664;7.626;2023-12-20T08:16:32;20.60;75.60
2363;DHT22;64265;51.664;7.626;2023-12-20T08:18:58;20.60;75.60
2363;DHT22;64265;51.664;7.626;2023-12-20T08:21:25;20.70;75.70
2363;DHT22;64265;51.664;7.626;2023-12-20T08:23:54;20.70;75.50
2363;DHT22;64265;51.664;7.626;2023-12-20T08:26:21;20.70;75.20
2363;DHT22;64265;51.664;7.626;2023-12-20T08:28:49;20.70;75.30
2363;DHT22;64265;51.664;7.626;2023-12-20T08:31:15;20.80;75.30
2363;DHT22;64265;51.664;7.626;2023-12-20T08:33:43;20.90;75.50
2363;DHT22;64265;51.664;7.626;2023-12-20T08:36:10;20.90;75.60
2363;DHT22;64265;51.664;7.626;2023-12-20T08:38:37;20.90;75.40
2363;DHT22;64265;51.664;7.626;2023-12-20T08:41:06;20.90;75.40
2363;DHT22;64265;51.664;7.626;2023-12-20T08:43:34;21.00;75.40
2363;DHT22;64265;51.664;7.626;2023-12-20T08:46:01;21.00;75.40
2363;DHT22;64265;51.664;7.626;2023-12-20T08:48:28;21.00;75.30
2363;DHT22;64265;51.664;7.626;2023-12-20T08:50:55;21.00;75.10
2363;DHT22;64265;51.664;7.626;2023-12-20T08:53:22;21.10;75.10
2363;DHT22;64265;51.664;7.626;2023-12-20T08:55:48;21.10;75.10
2363;DHT22;64265;51.664;7.626;2023-12-20T08:58:16;21.10;75.00
2363;DHT22;64265;51.664;7.626;2023-12-20T09:00:43;21.10;74.80
2363;DHT22;64265;51.664;7.626;2023-12-20T09:03:10;21.20;74.90
2363;DHT22;64265;51.664;7.626;2023-12-20T09:05:37;21.20;74.80
2363;DHT22;64265;51.664;7.626;2023-12-20T09:08:04;21.20;74.70
2363;DHT22;64265;51.664;7.626;2023-12-20T09:10:31;21.20;74.70
2363;DHT22;64265;51.664;7.626;2023-12-20T09:12:57;21.30;74.70
2363;DHT22;64265;51.664;7.626;2023-12-20T09:15:26;21.20;74.60
2363;DHT22;64265;51.664;7.626;2023-12-20T09:17:54;21.30;74.60
2363;DHT22;64265;51.664;7.626;2023-12-20T09:20:21;21.30;74.60
2363;DHT22;64265;51.664;7.626;2023-12-20T09:22:48;21.30;74.50
2363;DHT22;64265;51.664;7.626;2023-12-20T09:25:15;21.30;75.20
2363;DHT22;64265;51.664;7.626;2023-12-20T09:27:43;21.30;75.20
2363;DHT22;64265;51.664;7.626;2023-12-20T09:30:10;21.30;74.40
2363;DHT22;64265;51.664;7.626;2023-12-20T09:32:38;21.30;74.30
2363;DHT22;64265;51.664;7.626;2023-12-20T09:35:05;21.30;74.20
2363;DHT22;64265;51.664;7.626;2023-12-20T09:37:34;21.30;74.30
2363;DHT22;64265;51.664;7.626;2023-12-20T09:40:01;21.30;74.30
2363;DHT22;64265;51.664;7.626;2023-12-20T09:42:38;21.30;74.50
2363;DHT22;64265;51.664;7.626;2023-12-20T09:45:08;21.30;74.60
2363;DHT22;64265;51.664;7.626;2023-12-20T09:47:37;21.40;74.70
2363;DHT22;64265;51.664;7.626;2023-12-20T09:50:05;21.30;74.60
2363;DHT22;64265;51.664;7.626;2023-12-20T09:52:32;21.40;74.80
2363;DHT22;64265;51.664;7.626;2023-12-20T09:55:01;21.40;74.80
2363;DHT22;64265;51.664;7.626;2023-12-20T09:57:31;21.40;74.80
2363;DHT22;64265;51.664;7.626;2023-12-20T09:59:57;21.40;74.80
2363;DHT22;64265;51.664;7.626;2023-12-20T10:02:25;21.40;74.90
2363;DHT22;64265;51.664;7.626;2023-12-20T10:04:54;21.40;74.80
2363;DHT22;64265;51.664;7.626;2023-12-20T10:07:21;21.40;74.80
2363;DHT22;64265;51.664;7.626;2023-12-20T10:09:48;21.40;74.70
2363;DHT22;64265;51.664;7.626;2023-12-20T10:12:15;21.40;74.70
2363;DHT22;64265;51.664;7.626;2023-12-20T10:14:41;21.40;74.70
2363;DHT22;64265;51.664;7.626;2023-12-20T10:17:08;21.40;75.30
2363;DHT22;64265;51.664;7.626;2023-12-20T10:19:36;21.40;74.80
2363;DHT22;64265;51.664;7.626;2023-12-20T10:22:05;21.40;74.80
2363;DHT22;64265;51.664;7.626;2023-12-20T10:24:32;21.40;74.80
2363;DHT22;64265;51.664;7.626;2023-12-20T10:27:02;21.40;74.80
2363;DHT22;64265;51.664;7.626;2023-12-20T10:29:32;21.40;74.70
2363;DHT22;64265;51.664;7.626;2023-12-20T10:31:59;21.50;74.80
2363;DHT22;64265;51.664;7.626;2023-12-20T10:34:25;21.50;74.50
2363;DHT22;64265;51.664;7.626;2023-12-20T10:36:52;21.50;74.50
2363;DHT22;64265;51.664;7.626;2023-12-20T10:39:21;21.60;74.60
2363;DHT22;64265;51.664;7.626;2023-12-20T10:41:47;21.60;74.50
2363;DHT22;64265;51.664;7.626;2023-12-20T10:44:15;21.50;74.40
2363;DHT22;64265;51.664;7.626;2023-12-20T10:46:42;21.60;74.50
2363;DHT22;64265;51.664;7.626;2023-12-20T10:49:16;21.60;74.50
2363;DHT22;64265;51.664;7.626;2023-12-20T10:51:44;21.60;74.40
2363;DHT22;64265;51.664;7.626;2023-12-20T10:54:12;21.60;74.40
2363;DHT22;64265;51.664;7.626;2023-12-20T10:56:40;21.60;74.40
2363;DHT22;64265;51.664;7.626;2023-12-20T10:59:09;21.70;74.60
2363;DHT22;64265;51.664;7.626;2023-12-20T11:01:38;21.70;74.80
2363;DHT22;64265;51.664;7.626;2023-12-20T11:04:08;21.70;74.90
2363;DHT22;64265;51.664;7.626;2023-12-20T11:06:47;21.70;75.00
2363;DHT22;64265;51.664;7.626;2023-12-20T11:09:22;21.70;75.10
2363;DHT22;64265;51.664;7.626;2023-12-20T11:12:01;21.80;75.40
2363;DHT22;64265;51.664;7.626;2023-12-20T11:14:34;21.80;75.30
2363;DHT22;64265;51.664;7.626;2023-12-20T11:17:06;21.80;75.40
2363;DHT22;64265;51.664;7.626;2023-12-20T11:19:36;21.80;75.30
2363;DHT22;64265;51.664;7.626;2023-12-20T11:22:03;21.80;75.40
2363;DHT22;64265;51.664;7.626;2023-12-20T11:24:31;21.80;75.30
2363;DHT22;64265;51.664;7.626;2023-12-20T11:27:01;21.80;75.40
2363;DHT22;64265;51.664;7.626;2023-12-20T11:29:34;21.90;75.50
2363;DHT22;64265;51.664;7.626;2023-12-20T11:32:02;21.90;75.40
2363;DHT22;64265;51.664;7.626;2023-12-20T11:34:32;21.90;75.40
2363;DHT22;64265;51.664;7.626;2023-12-20T11:37:00;21.90;75.40
2363;DHT22;64265;51.664;7.626;2023-12-20T11:39:27;21.90;75.50
2363;DHT22;64265;51.664;7.626;2023-12-20T11:41:55;21.90;75.40
2363;DHT22;64265;51.664;7.626;2023-12-20T11:44:30;21.90;75.40
2363;DHT22;64265;51.664;7.626;2023-12-20T11:46:58;21.90;75.40
2363;DHT22;64265;51.664;7.626;2023-12-20T11:49:24;22.00;75.60
2363;DHT22;64265;51.664;7.626;2023-12-20T11:51:51;22.00;75.50
2363;DHT22;64265;51.664;7.626;2023-12-20T11:54:18;22.00;75.40
2363;DHT22;64265;51.664;7.626;2023-12-20T11:56:45;22.00;75.70
2363;DHT22;64265;51.664;7.626;2023-12-20T11:59:12;22.00;75.60
2363;DHT22;64265;51.664;7.626;2023-12-20T12:01:47;22.00;76.40
2363;DHT22;64265;51.664;7.626;2023-12-20T12:04:14;22.00;75.60
2363;DHT22;64265;51.664;7.626;2023-12-20T12:06:43;22.00;75.60
2363;DHT22;64265;51.664;7.626;2023-12-20T12:09:09;22.00;75.60
2363;DHT22;64265;51.664;7.626;2023-12-20T12:11:36;22.00;75.50
2363;DHT22;64265;51.664;7.626;2023-12-20T12:14:03;22.00;75.50
2363;DHT22;64265;51.664;7.626;2023-12-20T12:16:30;22.10;75.60
2363;DHT22;64265;51.664;7.626;2023-12-20T12:18:58;22.10;75.60
2363;DHT22;64265;51.664;7.626;2023-12-20T12:21:26;22.10;75.60
2363;DHT22;64265;51.664;7.626;2023-12-20T12:23:52;22.10;75.50
2363;DHT22;64265;51.664;7.626;2023-12-20T12:26:19;22.10;75.60
2363;DHT22;64265;51.664;7.626;2023-12-20T12:28:46;22.10;75.60
2363;DHT22;64265;51.664;7.626;2023-12-20T12:31:13;22.10;75.40
2363;DHT22;64265;51.664;7.626;2023-12-20T12:33:41;22.10;75.50
2363;DHT22;64265;51.664;7.626;2023-12-20T12:36:10;22.10;75.60
2363;DHT22;64265;51.664;7.626;2023-12-20T12:38:37;22.20;75.50
2363;DHT22;64265;51.664;7.626;2023-12-20T12:41:04;22.10;75.40
2363;DHT22;64265;51.664;7.626;2023-12-20T12:43:32;22.10;75.40
2363;DHT22;64265;51.664;7.626;2023-12-20T12:45:59;22.10;75.40
2363;DHT22;64265;51.664;7.626;2023-12-20T12:48:26;22.10;75.40
2363;DHT22;64265;51.664;7.626;2023-12-20T12:50:53;22.20;75.60
2363;DHT22;64265;51.664;7.626;2023-12-20T12:53:25;22.10;75.30
2363;DHT22;64265;51.664;7.626;2023-12-20T12:55:53;22.20;75.50
2363;DHT22;64265;51.664;7.626;2023-12-20T12:58:20;22.10;75.30
2363;DHT22;64265;51.664;7.626;2023-12-20T13:00:47;22.30;75.60
2363;DHT22;64265;51.664;7.626;2023-12-20T13:03:14;22.10;75.30
2363;DHT22;64265;51.664;7.626;2023-12-20T13:05:41;22.20;75.30
2363;DHT22;64265;51.664;7.626;2023-12-20T13:08:08;22.20;75.40
2363;DHT22;64265;51.664;7.626;2023-12-20T13:10:38;22.20;75.40
2363;DHT22;64265;51.664;7.626;2023-12-20T13:13:05;22.20;75.30
2363;DHT22;64265;51.664;7.626;2023-12-20T13:15:32;22.20;75.40
2363;DHT22;64265;51.664;7.626;2023-12-20T13:17:58;22.20;75.40
2363;DHT22;64265;51.664;7.626;2023-12-20T13:20:25;22.20;75.30
2363;DHT22;64265;51.664;7.626;2023-12-20T13:22:52;22.20;75.40
2363;DHT22;64265;51.664;7.626;2023-12-20T13:25:18;22.30;75.50
2363;DHT22;64265;51.664;7.626;2023-12-20T13:27:46;22.30;75.40
2363;DHT22;64265;51.664;7.626;2023-12-20T13:30:14;22.30;75.30
2363;DHT22;64265;51.664;7.626;2023-12-20T13:32:41;22.30;74.60
2363;DHT22;64265;51.664;7.626;2023-12-20T13:35:08;22.30;74.70
2363;DHT22;64265;51.664;7.626;2023-12-20T13:37:35;22.30;74.40
2363;DHT22;64265;51.664;7.626;2023-12-20T13:40:02;22.20;70.60
2363;DHT22;64265;51.664;7.626;2023-12-20T13:42:30;22.10;69.10
2363;DHT22;64265;51.664;7.626;2023-12-20T13:44:58;22.00;68.00
2363;DHT22;64265;51.664;7.626;2023-12-20T13:47:24;21.90;66.50
2363;DHT22;64265;51.664;7.626;2023-12-20T13:49:51;21.90;66.10
2363;DHT22;64265;51.664;7.626;2023-12-20T13:52:18;21.80;64.80
2363;DHT22;64265;51.664;7.626;2023-12-20T13:54:45;21.70;63.30
2363;DHT22;64265;51.664;7.626;2023-12-20T13:57:11;21.80;66.60
2363;DHT22;64265;51.664;7.626;2023-12-20T13:59:38;21.80;67.30
2363;DHT22;64265;51.664;7.626;2023-12-20T14:02:06;21.90;67.70
2363;DHT22;64265;51.664;7.626;2023-12-20T14:04:33;22.00;68.50
2363;DHT22;64265;51.664;7.626;2023-12-20T14:07:00;22.00;68.50
2363;DHT22;64265;51.664;7.626;2023-12-20T14:09:26;22.00;68.80
2363;DHT22;64265;51.664;7.626;2023-12-20T14:11:53;22.10;69.30
2363;DHT22;64265;51.664;7.626;2023-12-20T14:14:20;22.10;69.60
2363;DHT22;64265;51.664;7.626;2023-12-20T14:16:47;22.10;69.80
2363;DHT22;64265;51.664;7.626;2023-12-20T14:19:16;22.10;69.60
2363;DHT22;64265;51.664;7.626;2023-12-20T14:21:43;22.20;69.60
2363;DHT22;64265;51.664;7.626;2023-12-20T14:24:11;22.10;69.70
2363;DHT22;64265;51.664;7.626;2023-12-20T14:26:40;22.10;69.80
2363;DHT22;64265;51.664;7.626;2023-12-20T14:29:07;22.20;70.00
2363;DHT22;64265;51.664;7.626;2023-12-20T14:31:34;22.20;70.30
2363;DHT22;64265;51.664;7.626;2023-12-20T14:34:02;22.20;70.40
2363;DHT22;64265;51.664;7.626;2023-12-20T14:36:31;22.30;70.80
2363;DHT22;64265;51.664;7.626;2023-12-20T14:38:58;22.30;70.70
2363;DHT22;64265;51.664;7.626;2023-12-20T14:41:25;22.30;70.80
2363;DHT22;64265;51.664;7.626;2023-12-20T14:43:52;22.30;70.90
2363;DHT22;64265;51.664;7.626;2023-12-20T14:46:19;22.30;70.70
2363;DHT22;64265;51.664;7.626;2023-12-20T14:48:45;22.30;71.00
2363;DHT22;64265;51.664;7.626;2023-12-20T14:51:13;22.30;71.10
2363;DHT22;64265;51.664;7.626;2023-12-20T14:53:41;22.30;71.30
2363;DHT22;64265;51.664;7.626;2023-12-20T14:56:08;22.30;71.20
2363;DHT22;64265;51.664;7.626;2023-12-20T14:58:35;22.40;71.50
2363;DHT22;64265;51.664;7.626;2023-12-20T15:01:02;22.40;71.60
2363;DHT22;64265;51.664;7.626;2023-12-20T15:03:29;22.40;71.30
2363;DHT22;64265;51.664;7.626;2023-12-20T15:05:56;22.40;72.20
2363;DHT22;64265;51.664;7.626;2023-12-20T15:08:24;22.40;71.60
2363;DHT22;64265;51.664;7.626;2023-12-20T15:10:52;22.30;69.00
2363;DHT22;64265;51.664;7.626;2023-12-20T15:13:19;22.20;68.50
2363;DHT22;64265;51.664;7.626;2023-12-20T15:15:46;22.20;68.50
2363;DHT22;64265;51.664;7.626;2023-12-20T15:18:12;22.20;68.80
2363;DHT22;64265;51.664;7.626;2023-12-20T15:20:40;22.20;68.50
2363;DHT22;64265;51.664;7.626;2023-12-20T15:23:09;22.20;68.20
2363;DHT22;64265;51.664;7.626;2023-12-20T15:25:36;22.20;68.40
2363;DHT22;64265;51.664;7.626;2023-12-20T15:28:04;22.30;68.40
2363;DHT22;64265;51.664;7.626;2023-12-20T15:30:31;22.30;68.70
2363;DHT22;64265;51.664;7.626;2023-12-20T15:32:57;22.30;68.80
2363;DHT22;64265;51.664;7.626;2023-12-20T15:35:25;22.40;69.40
2363;DHT22;64265;51.664;7.626;2023-12-20T15:37:51;22.40;69.60
2363;DHT22;64265;51.664;7.626;2023-12-20T15:40:18;22.40;69.70
2363;DHT22;64265;51.664;7.626;2023-12-20T15:42:45;22.50;69.80
2363;DHT22;64265;51.664;7.626;2023-12-20T15:45:13;22.40;69.80